Time;durP1;ratioP1;P1;durP2;ratioP2;P2;SDS_P1;SDS_P2;PMS_P1;PMS_P2;Temp;Humidity;BMP_temperature;BMP_pressure;BME280_temperature;BME280_humidity;BME280_pressure;Samples;Min_cycle;Max_cycle;Signal;HPM_P1;HPM_P2
2021/10/17 09:58:12;;;;;;;5.07;1.70;;;16.10;99.90;;;;;;4935804;29;20345;-71
2021/10/17 10:00:42;;;;;;;3.80;1.23;;;16.10;99.90;;;;;;4937145;29;20209;-72
2021/10/17 10:03:13;;;;;;;4.97;1.40;;;16.30;99.90;;;;;;4929226;29;20304;-71
2021/10/17 10:05:42;;;;;;;2.70;1.23;;;16.30;99.90;;;;;;4917738;29;20215;-71
2021/10/17 10:08:10;;;;;;;4.27;1.60;;;16.30;99.90;;;;;;4917722;29;20241;-71
2021/10/17 10:10:40;;;;;;;3.10;1.43;;;16.20;99.90;;;;;;4917393;29;20217;-71
2021/10/17 10:13:07;;;;;;;3.40;1.30;;;16.20;99.90;;;;;;4927887;29;20236;-72
2021/10/17 10:15:36;;;;;;;3.07;1.60;;;16.10;99.90;;;;;;4945487;29;20205;-72
2021/10/17 10:18:04;;;;;;;3.27;1.30;;;16.20;99.90;;;;;;4936711;29;20205;-71
2021/10/17 10:20:32;;;;;;;3.57;1.27;;;16.30;99.90;;;;;;4936028;29;20217;-72
2021/10/17 10:23:00;;;;;;;4.87;1.30;;;16.20;99.90;;;;;;4936213;29;20236;-72
2021/10/17 10:25:27;;;;;;;4.23;1.23;;;16.40;99.90;;;;;;4949405;29;20212;-69
2021/10/17 10:27:54;;;;;;;4.63;1.47;;;16.30;99.90;;;;;;4954330;29;20703;-72
2021/10/17 10:30:24;;;;;;;3.13;1.37;;;16.20;99.90;;;;;;4944591;29;20209;-72
2021/10/17 10:33:29;;;;;;;3.60;1.37;;;16.20;99.90;;;;;;4934841;29;20307;-72
2021/10/17 10:36:11;;;;;;;4.30;1.20;;;16.40;99.90;;;;;;4905832;29;20335;-71
2021/10/17 10:39:15;;;;;;;3.20;1.30;;;16.50;99.90;;;;;;4914379;29;20254;-71
2021/10/17 10:41:51;;;;;;;3.60;1.10;;;16.60;99.90;;;;;;4931766;29;20208;-73
2021/10/17 10:44:19;;;;;;;6.03;1.43;;;16.70;99.90;;;;;;4935087;29;20240;-73
2021/10/17 10:46:47;;;;;;;2.10;1.17;;;16.80;99.90;;;;;;4935834;29;20213;-74
2021/10/17 10:49:39;;;;;;;3.63;1.30;;;16.80;99.90;;;;;;4935815;29;20232;-71
2021/10/17 10:52:31;;;;;;;4.53;1.30;;;16.40;99.90;;;;;;4935849;29;20212;-74
2021/10/17 10:55:00;;;;;;;4.20;1.50;;;16.10;99.90;;;;;;4934666;29;20224;-71
2021/10/17 10:57:29;;;;;;;3.63;1.20;;;16.50;99.90;;;;;;4936087;29;20212;-69
2021/10/17 11:00:01;;;;;;;4.10;1.60;;;16.50;99.90;;;;;;4936209;29;20252;-69
2021/10/17 11:02:28;;;;;;;2.87;0.97;;;16.70;99.90;;;;;;4936375;29;20228;-71
2021/10/17 11:05:14;;;;;;;4.00;1.40;;;16.70;99.90;;;;;;4936532;29;20214;-69
2021/10/17 11:07:42;;;;;;;4.67;1.30;;;16.90;99.90;;;;;;4936197;29;20236;-69
2021/10/17 11:10:47;;;;;;;4.00;1.60;;;17.00;99.90;;;;;;4936358;29;20212;-70
2021/10/17 11:13:34;;;;;;;5.73;1.63;;;17.20;99.90;;;;;;4936331;29;20299;-71
2021/10/17 11:16:02;;;;;;;2.37;1.43;;;17.20;99.90;;;;;;4936414;29;20685;-70
2021/10/17 11:18:31;;;;;;;3.77;1.37;;;17.30;99.90;;;;;;4936241;29;20209;-70
2021/10/17 11:21:01;;;;;;;1.40;0.93;;;17.10;99.90;;;;;;4936490;29;20661;-70
2021/10/17 11:23:31;;;;;;;1.93;1.07;;;17.20;99.90;;;;;;4936120;29;20228;-70
2021/10/17 11:25:59;;;;;;;2.53;1.00;;;17.30;99.90;;;;;;4936050;29;20209;-71
2021/10/17 11:28:28;;;;;;;1.97;1.00;;;17.50;99.90;;;;;;4936160;29;20599;-72
2021/10/17 11:31:09;;;;;;;4.60;1.27;;;17.40;99.90;;;;;;4920546;29;20201;-72
2021/10/17 11:33:37;;;;;;;2.40;1.17;;;17.50;99.90;;;;;;4917383;29;20249;-71
2021/10/17 11:36:06;;;;;;;3.90;1.40;;;17.40;99.90;;;;;;4917238;29;20210;-69
2021/10/17 11:38:33;;;;;;;3.70;1.00;;;17.40;99.90;;;;;;4917341;29;20210;-70
2021/10/17 11:41:03;;;;;;;2.70;1.13;;;17.30;99.90;;;;;;4916838;29;20220;-73
2021/10/17 11:43:39;;;;;;;2.70;0.90;;;17.40;99.90;;;;;;4916672;29;20284;-70
2021/10/17 11:46:08;;;;;;;3.40;1.33;;;17.40;99.90;;;;;;4916672;29;20678;-70
2021/10/17 11:48:35;;;;;;;2.03;1.10;;;17.40;99.90;;;;;;4916510;29;20617;-70
2021/10/17 11:51:06;;;;;;;3.83;1.10;;;17.30;99.90;;;;;;4916897;29;20245;-72
2021/10/17 11:53:34;;;;;;;3.67;0.87;;;17.30;99.90;;;;;;4929410;28;20231;-72
2021/10/17 11:56:01;;;;;;;4.33;1.37;;;17.30;99.90;;;;;;4934072;29;20227;-72
2021/10/17 11:58:29;;;;;;;1.87;0.90;;;17.30;99.90;;;;;;4935303;29;20208;-72
2021/10/17 12:01:05;;;;;;;1.83;0.90;;;17.20;99.90;;;;;;4935643;29;20218;-72
2021/10/17 12:03:32;;;;;;;2.30;1.00;;;17.30;99.90;;;;;;4934611;29;20230;-72
2021/10/17 12:06:00;;;;;;;1.40;0.60;;;17.60;99.90;;;;;;4935293;29;20220;-73
2021/10/17 12:08:31;;;;;;;1.83;1.00;;;17.70;99.90;;;;;;4935507;29;20283;-74
2021/10/17 12:11:00;;;;;;;1.47;0.77;;;17.80;99.90;;;;;;4926969;29;20206;-73
2021/10/17 12:13:28;;;;;;;1.60;0.83;;;17.70;99.90;;;;;;4931405;29;20237;-71
2021/10/17 12:16:05;;;;;;;4.17;0.93;;;17.70;99.30;;;;;;4935187;29;20216;-73
2021/10/17 12:18:33;;;;;;;1.93;0.90;;;17.50;99.90;;;;;;4935731;29;20205;-72
2021/10/17 12:21:01;;;;;;;1.80;0.87;;;17.50;99.90;;;;;;4935656;29;20209;-71
2021/10/17 12:23:29;;;;;;;2.60;0.83;;;17.70;99.90;;;;;;4935773;29;20228;-70
2021/10/17 12:25:56;;;;;;;1.90;1.00;;;17.80;99.90;;;;;;4942864;29;20234;-72
2021/10/17 12:28:23;;;;;;;3.87;0.90;;;17.80;99.90;;;;;;4943310;29;20236;-71
2021/10/17 12:30:51;;;;;;;1.57;0.70;;;17.90;99.90;;;;;;4938961;29;20209;-71
2021/10/17 12:33:29;;;;;;;1.53;0.90;;;17.80;99.90;;;;;;4938493;29;20707;-69
2021/10/17 12:35:56;;;;;;;2.30;0.97;;;17.80;99.90;;;;;;4938668;29;20317;-71
2021/10/17 12:38:32;;;;;;;2.27;0.80;;;17.90;99.90;;;;;;4938893;29;20217;-70
2021/10/17 12:41:00;;;;;;;1.30;1.00;;;17.80;99.90;;;;;;4939583;29;20238;-72
2021/10/17 12:43:31;;;;;;;1.57;0.87;;;17.90;99.90;;;;;;4938586;29;20229;-73
2021/10/17 12:46:09;;;;;;;4.17;0.97;;;18.00;99.90;;;;;;4939011;29;20220;-71
2021/10/17 12:48:37;;;;;;;3.93;1.03;;;17.90;99.90;;;;;;4938961;29;20241;-71
2021/10/17 12:51:24;;;;;;;2.10;0.97;;;17.90;99.90;;;;;;4938871;29;20679;-71
2021/10/17 12:54:04;;;;;;;1.53;0.60;;;17.90;99.80;;;;;;4938864;29;20239;-71
2021/10/17 12:56:30;;;;;;;1.50;0.70;;;17.90;99.90;;;;;;4938821;29;20216;-71
2021/10/17 12:59:06;;;;;;;2.73;1.10;;;17.80;99.90;;;;;;4938333;29;20215;-71
2021/10/17 13:01:32;;;;;;;2.25;0.90;;;17.80;99.90;;;;;;4938714;29;20208;-73
2021/10/17 13:04:09;;;;;;;3.07;1.30;;;18.00;99.90;;;;;;4938250;29;20229;-71
2021/10/17 13:06:48;;;;;;;2.70;0.97;;;18.00;99.90;;;;;;4938925;29;20222;-70
2021/10/17 13:09:16;;;;;;;2.77;1.10;;;18.00;99.90;;;;;;4938504;29;20240;-70
2021/10/17 13:11:43;;;;;;;2.07;1.00;;;18.00;99.90;;;;;;4938142;29;20204;-71
2021/10/17 13:14:10;;;;;;;2.10;0.93;;;18.00;99.90;;;;;;4937771;29;20239;-71
2021/10/17 13:16:40;;;;;;;3.10;0.93;;;18.00;99.90;;;;;;4937665;29;20234;-71
2021/10/17 13:19:07;;;;;;;5.50;1.20;;;17.80;99.90;;;;;;4937966;29;20219;-71
2021/10/17 13:21:34;;;;;;;2.53;1.00;;;17.70;99.90;;;;;;4938310;29;20209;-71
2021/10/17 13:24:01;;;;;;;3.17;1.20;;;17.70;99.90;;;;;;4938569;29;20228;-71
2021/10/17 13:26:30;;;;;;;5.40;1.40;;;17.70;99.90;;;;;;4938578;29;20213;-71
2021/10/17 13:28:57;;;;;;;3.10;1.30;;;17.60;99.90;;;;;;4938394;29;20244;-70
2021/10/17 13:31:24;;;;;;;2.87;1.03;;;17.60;99.90;;;;;;4938279;29;20568;-71
2021/10/17 13:33:51;;;;;;;2.93;1.27;;;17.70;99.90;;;;;;4938680;29;20244;-71
2021/10/17 13:36:18;;;;;;;3.60;1.37;;;17.70;99.90;;;;;;4937296;29;20220;-71
2021/10/17 13:38:44;;;;;;;4.27;1.30;;;17.90;99.90;;;;;;4938104;29;20746;-73
2021/10/17 13:41:11;;;;;;;4.00;1.00;;;17.60;99.90;;;;;;4938263;29;20213;-71
2021/10/17 13:43:39;;;;;;;3.87;1.10;;;17.50;99.90;;;;;;4938119;29;20237;-72
2021/10/17 13:46:06;;;;;;;4.73;1.17;;;17.50;99.90;;;;;;4938217;29;20217;-71
2021/10/17 13:48:33;;;;;;;3.70;1.20;;;17.50;99.90;;;;;;4938088;29;20240;-71
2021/10/17 13:51:00;;;;;;;2.60;0.97;;;17.60;99.90;;;;;;4938144;29;20208;-71
2021/10/17 13:53:26;;;;;;;4.37;0.87;;;17.60;99.90;;;;;;4937902;29;20236;-71
2021/10/17 13:55:53;;;;;;;2.57;1.10;;;17.60;99.90;;;;;;4937941;29;20220;-71
2021/10/17 13:58:20;;;;;;;3.03;1.17;;;17.70;99.90;;;;;;4938225;29;20227;-71
2021/10/17 14:00:48;;;;;;;4.50;1.57;;;17.60;99.90;;;;;;4938025;29;20751;-71
2021/10/17 14:03:15;;;;;;;2.93;1.27;;;17.40;99.90;;;;;;4937769;29;20321;-71
2021/10/17 14:05:42;;;;;;;4.57;1.37;;;17.30;99.90;;;;;;4937581;29;20213;-72
2021/10/17 14:08:08;;;;;;;6.57;1.50;;;17.40;99.90;;;;;;4937115;29;20209;-71
2021/10/17 14:10:35;;;;;;;4.73;1.70;;;17.40;99.90;;;;;;4936883;29;20730;-71
2021/10/17 14:13:02;;;;;;;3.43;1.10;;;17.40;99.90;;;;;;4936732;29;20228;-71
2021/10/17 14:15:29;;;;;;;3.93;1.40;;;17.40;99.90;;;;;;4937079;29;20657;-71
2021/10/17 14:17:57;;;;;;;6.03;1.60;;;17.40;99.90;;;;;;4937419;29;20251;-72
2021/10/17 14:20:24;;;;;;;5.07;1.67;;;17.10;99.90;;;;;;4936035;29;20224;-71
2021/10/17 14:22:51;;;;;;;5.57;1.70;;;17.00;99.90;;;;;;4937518;29;20233;-72
2021/10/17 14:25:18;;;;;;;4.67;1.33;;;16.70;99.90;;;;;;4937446;29;20571;-73
2021/10/17 14:27:45;;;;;;;3.67;1.30;;;16.70;99.90;;;;;;4937366;29;20214;-71
2021/10/17 14:30:11;;;;;;;1.73;1.07;;;16.90;99.90;;;;;;4937225;29;20718;-72
2021/10/17 14:32:38;;;;;;;3.37;1.20;;;16.80;99.90;;;;;;4937119;29;20229;-73
2021/10/17 14:35:08;;;;;;;2.93;1.20;;;16.80;99.90;;;;;;4937457;29;20215;-72
2021/10/17 14:37:34;;;;;;;4.67;1.20;;;16.70;99.90;;;;;;4937368;29;20208;-72
2021/10/17 14:40:01;;;;;;;3.23;1.33;;;16.60;99.90;;;;;;4936889;29;20240;-72
2021/10/17 14:42:28;;;;;;;4.47;1.30;;;16.60;99.90;;;;;;4937077;29;20620;-72
2021/10/17 14:44:55;;;;;;;4.07;1.47;;;16.60;99.90;;;;;;4936712;29;20205;-72
2021/10/17 14:47:22;;;;;;;3.63;1.33;;;16.40;99.90;;;;;;4936766;29;20215;-72
2021/10/17 14:49:49;;;;;;;3.70;1.43;;;16.60;99.90;;;;;;4936709;29;20237;-72
2021/10/17 14:52:17;;;;;;;4.77;1.30;;;16.60;99.90;;;;;;4936659;29;20209;-71
2021/10/17 14:54:44;;;;;;;5.30;1.53;;;16.50;99.90;;;;;;4936963;29;20211;-72
2021/10/17 14:57:11;;;;;;;6.20;1.50;;;16.60;99.90;;;;;;4936353;29;20315;-74
2021/10/17 14:59:37;;;;;;;4.33;1.33;;;16.70;99.90;;;;;;4937015;29;20224;-74
2021/10/17 15:02:04;;;;;;;7.40;1.80;;;16.70;99.90;;;;;;4936767;29;20211;-72
2021/10/17 15:04:32;;;;;;;5.23;1.27;;;16.80;99.90;;;;;;4936605;29;20209;-72
2021/10/17 15:07:00;;;;;;;4.23;1.60;;;16.80;99.90;;;;;;4936537;29;20208;-73
2021/10/17 15:09:29;;;;;;;5.93;1.70;;;16.80;99.90;;;;;;4936638;29;20327;-72
2021/10/17 15:11:57;;;;;;;6.83;2.07;;;16.90;99.90;;;;;;4936343;29;20209;-72
2021/10/17 15:14:24;;;;;;;5.13;1.73;;;16.50;99.90;;;;;;4936655;29;20229;-74
2021/10/17 15:16:52;;;;;;;4.57;1.70;;;16.40;99.90;;;;;;4936603;29;20205;-72
2021/10/17 15:19:19;;;;;;;7.13;1.70;;;16.30;99.90;;;;;;4936659;29;20208;-72
2021/10/17 15:21:46;;;;;;;5.10;1.53;;;16.30;99.90;;;;;;4936283;29;20568;-71
2021/10/17 15:24:14;;;;;;;5.83;1.90;;;16.20;99.90;;;;;;4936506;29;20588;-71
2021/10/17 15:26:43;;;;;;;6.40;2.30;;;16.30;99.90;;;;;;4936526;29;20215;-72
2021/10/17 15:29:09;;;;;;;4.70;1.53;;;16.30;99.90;;;;;;4936263;29;20592;-72
2021/10/17 15:31:37;;;;;;;6.43;1.57;;;16.30;99.90;;;;;;4936458;29;20264;-72
2021/10/17 15:34:04;;;;;;;7.90;1.83;;;16.30;99.90;;;;;;4936139;29;20233;-74
2021/10/17 15:36:32;;;;;;;5.17;1.90;;;16.20;99.90;;;;;;4936350;29;20212;-72
2021/10/17 15:38:59;;;;;;;5.33;1.57;;;16.30;99.90;;;;;;4936087;29;20264;-71
2021/10/17 15:41:26;;;;;;;4.03;1.70;;;16.20;99.90;;;;;;4935904;29;20690;-72
2021/10/17 15:43:55;;;;;;;2.70;1.30;;;16.10;99.90;;;;;;4935980;29;20323;-72
2021/10/17 15:46:23;;;;;;;4.40;1.60;;;16.00;99.90;;;;;;4936191;29;20213;-72
2021/10/17 15:48:50;;;;;;;3.53;1.53;;;16.00;99.90;;;;;;4935658;29;20611;-73
2021/10/17 15:51:18;;;;;;;4.47;1.70;;;15.70;99.90;;;;;;4935616;29;20216;-72
2021/10/17 15:53:45;;;;;;;4.20;1.37;;;15.80;99.90;;;;;;4936671;29;20232;-72
2021/10/17 15:56:12;;;;;;;4.97;2.03;;;15.80;99.90;;;;;;4936128;29;20228;-73
2021/10/17 15:58:39;;;;;;;4.20;1.87;;;15.80;99.90;;;;;;4935129;29;20205;-73
2021/10/17 16:01:07;;;;;;;5.10;1.60;;;15.80;99.90;;;;;;4935876;29;20223;-73
2021/10/17 16:03:34;;;;;;;5.10;2.53;;;15.80;99.90;;;;;;4935706;29;20238;-71
2021/10/17 16:06:00;;;;;;;4.47;2.20;;;15.70;99.90;;;;;;4935816;29;20227;-71
2021/10/17 16:08:27;;;;;;;4.43;1.97;;;15.70;99.90;;;;;;4935725;29;20216;-72
2021/10/17 16:10:54;;;;;;;5.17;2.37;;;15.70;99.90;;;;;;4935657;29;20236;-71
2021/10/17 16:13:21;;;;;;;4.53;2.10;;;15.50;99.90;;;;;;4935500;29;20228;-71
2021/10/17 16:15:48;;;;;;;5.73;2.10;;;15.60;99.90;;;;;;4935492;29;20208;-72
2021/10/17 16:18:16;;;;;;;5.63;2.40;;;15.50;99.90;;;;;;4935468;29;20213;-73
2021/10/17 16:20:44;;;;;;;5.23;2.20;;;15.50;99.90;;;;;;4935856;29;20652;-72
2021/10/17 16:23:12;;;;;;;7.63;2.17;;;15.40;99.90;;;;;;4935475;29;20260;-72
2021/10/17 16:25:39;;;;;;;4.53;2.10;;;15.30;99.90;;;;;;4935543;29;20215;-73
2021/10/17 16:28:06;;;;;;;8.40;2.13;;;15.20;99.90;;;;;;4935719;29;20216;-72
2021/10/17 16:30:44;;;;;;;9.13;2.20;;;15.00;99.90;;;;;;4935576;29;20615;-72
2021/10/17 16:33:13;;;;;;;5.53;2.00;;;14.90;99.90;;;;;;4935400;29;20280;-72
2021/10/17 16:35:41;;;;;;;5.67;1.97;;;14.90;99.90;;;;;;4935843;29;20268;-72
2021/10/17 16:38:08;;;;;;;7.57;2.80;;;14.70;99.90;;;;;;4935650;29;20209;-72
2021/10/17 16:40:35;;;;;;;7.33;2.63;;;14.70;99.90;;;;;;4935057;29;20209;-72
2021/10/17 16:43:02;;;;;;;5.80;2.23;;;14.70;99.90;;;;;;4935136;29;20229;-71
2021/10/17 16:45:29;;;;;;;5.77;2.17;;;14.70;99.90;;;;;;4935411;29;20660;-72
2021/10/17 16:47:56;;;;;;;6.23;2.33;;;14.70;99.90;;;;;;4935742;29;20209;-74
2021/10/17 16:50:24;;;;;;;6.03;2.63;;;14.60;99.90;;;;;;4935390;29;20232;-72
2021/10/17 16:52:52;;;;;;;5.67;2.10;;;14.50;99.90;;;;;;4935548;29;20311;-72
2021/10/17 16:55:25;;;;;;;7.17;2.20;;;14.50;99.90;;;;;;4935230;29;20316;-74
2021/10/17 16:57:52;;;;;;;3.77;2.10;;;14.40;99.90;;;;;;4935132;29;20208;-72
2021/10/17 17:00:19;;;;;;;10.00;3.00;;;14.30;99.90;;;;;;4935438;29;20208;-72
2021/10/17 17:02:46;;;;;;;5.33;2.43;;;14.40;99.90;;;;;;4935321;29;20233;-74
2021/10/17 17:05:12;;;;;;;8.90;3.43;;;14.60;99.90;;;;;;4935130;29;20688;-72
2021/10/17 17:07:39;;;;;;;7.60;3.53;;;14.50;99.90;;;;;;4935504;29;20300;-72
2021/10/17 17:10:09;;;;;;;8.80;3.40;;;14.50;99.90;;;;;;4936729;29;20243;-72
2021/10/17 17:12:35;;;;;;;6.50;2.87;;;14.40;99.90;;;;;;4938645;29;20229;-72
2021/10/17 17:15:04;;;;;;;11.40;3.80;;;14.30;99.90;;;;;;4938832;29;20215;-72
2021/10/17 17:17:31;;;;;;;16.07;5.13;;;14.40;99.90;;;;;;4938805;29;20209;-74
2021/10/17 17:19:58;;;;;;;12.90;5.70;;;14.20;99.90;;;;;;4939026;29;20238;-72
2021/10/17 17:22:25;;;;;;;10.57;5.50;;;14.00;99.90;;;;;;4938593;29;20219;-72
2021/10/17 17:24:52;;;;;;;9.53;4.57;;;13.90;99.90;;;;;;4938675;29;20235;-71
2021/10/17 17:27:20;;;;;;;10.80;5.70;;;13.90;99.90;;;;;;4938556;29;20295;-72
2021/10/17 17:29:48;;;;;;;12.33;6.37;;;14.00;99.90;;;;;;4938681;29;20243;-72
2021/10/17 17:32:15;;;;;;;9.23;5.00;;;14.00;99.90;;;;;;4938177;29;20683;-72
2021/10/17 17:34:42;;;;;;;11.03;5.27;;;13.90;99.90;;;;;;4938304;29;20208;-73
2021/10/17 17:37:10;;;;;;;10.63;5.90;;;13.90;99.90;;;;;;4938082;29;20217;-72
2021/10/17 17:39:37;;;;;;;10.13;5.97;;;14.10;99.90;;;;;;4938173;29;20608;-73
2021/10/17 17:42:04;;;;;;;11.27;5.17;;;14.00;99.90;;;;;;4938030;29;20209;-72
2021/10/17 17:44:33;;;;;;;11.27;5.83;;;13.90;99.90;;;;;;4938394;29;20216;-72
2021/10/17 17:46:59;;;;;;;16.60;6.77;;;13.90;99.90;;;;;;4938257;29;20209;-72
2021/10/17 17:49:27;;;;;;;11.20;5.17;;;14.00;99.90;;;;;;4938059;29;20209;-72
2021/10/17 17:51:54;;;;;;;10.77;6.10;;;13.90;99.90;;;;;;4937852;29;20679;-72
2021/10/17 17:54:22;;;;;;;10.20;4.97;;;13.80;99.90;;;;;;4937897;29;20256;-72
2021/10/17 17:56:49;;;;;;;10.17;4.47;;;13.80;99.90;;;;;;4937531;29;20306;-72
2021/10/17 17:59:16;;;;;;;9.93;5.27;;;13.70;99.90;;;;;;4938023;29;20211;-72
2021/10/17 18:01:44;;;;;;;9.83;5.10;;;13.60;99.90;;;;;;4937819;29;20217;-74
2021/10/17 18:04:12;;;;;;;11.83;5.60;;;13.50;99.90;;;;;;4937625;29;20730;-73
2021/10/17 18:06:38;;;;;;;7.97;4.60;;;13.50;99.90;;;;;;4937972;29;20739;-74
2021/10/17 18:09:05;;;;;;;8.37;4.30;;;13.40;99.90;;;;;;4937523;29;20213;-72
2021/10/17 18:11:32;;;;;;;7.50;4.10;;;13.40;99.90;;;;;;4937761;29;20236;-73
2021/10/17 18:14:00;;;;;;;11.00;4.17;;;13.30;99.90;;;;;;4937770;29;20561;-73
2021/10/17 18:16:27;;;;;;;9.53;4.77;;;13.30;99.90;;;;;;4937754;29;20256;-72
2021/10/17 18:18:55;;;;;;;9.27;4.70;;;13.30;99.90;;;;;;4937625;29;20216;-72
2021/10/17 18:21:22;;;;;;;10.63;4.97;;;13.30;99.90;;;;;;4936749;29;20219;-73
2021/10/17 18:23:49;;;;;;;9.17;4.83;;;13.30;99.90;;;;;;4937338;29;20229;-73
2021/10/17 18:26:16;;;;;;;12.37;4.87;;;13.10;99.90;;;;;;4937587;29;20211;-72
2021/10/17 18:28:42;;;;;;;14.10;5.67;;;13.20;99.90;;;;;;4937116;29;20660;-72
2021/10/17 18:31:09;;;;;;;10.57;4.87;;;13.20;99.90;;;;;;4937543;29;20236;-72
2021/10/17 18:33:36;;;;;;;13.77;5.77;;;13.10;99.90;;;;;;4937083;29;20688;-73
2021/10/17 18:36:06;;;;;;;14.23;6.67;;;13.00;99.90;;;;;;4937113;29;20208;-73
2021/10/17 18:38:33;;;;;;;13.67;6.63;;;12.90;99.90;;;;;;4937151;29;20264;-72
2021/10/17 18:40:59;;;;;;;13.63;6.07;;;12.80;99.90;;;;;;4937181;29;20212;-75
2021/10/17 18:43:26;;;;;;;15.27;6.03;;;12.90;99.90;;;;;;4937047;29;20233;-74
2021/10/17 18:45:53;;;;;;;12.00;6.13;;;13.00;99.90;;;;;;4937014;29;20688;-72
2021/10/17 18:48:20;;;;;;;14.47;6.37;;;13.00;99.90;;;;;;4936994;29;20219;-73
2021/10/17 18:50:47;;;;;;;14.47;6.30;;;13.10;99.90;;;;;;4936636;29;20232;-72
2021/10/17 18:53:15;;;;;;;12.60;5.37;;;13.00;99.90;;;;;;4936819;29;20402;-72
2021/10/17 18:55:42;;;;;;;11.73;5.37;;;12.70;99.90;;;;;;4936872;29;20224;-72
2021/10/17 18:58:08;;;;;;;15.80;6.67;;;12.80;99.90;;;;;;4936448;29;20223;-73
2021/10/17 19:00:35;;;;;;;15.17;5.50;;;12.80;99.90;;;;;;4936965;29;20208;-72
2021/10/17 19:03:02;;;;;;;12.17;5.53;;;12.80;99.90;;;;;;4936603;29;20316;-72
2021/10/17 19:05:30;;;;;;;13.77;5.50;;;13.00;99.90;;;;;;4936710;29;20208;-72
2021/10/17 19:07:57;;;;;;;11.27;5.40;;;13.10;99.90;;;;;;4936617;29;20628;-72
2021/10/17 19:10:26;;;;;;;12.80;5.20;;;13.10;99.90;;;;;;4936241;29;20240;-72
2021/10/17 19:12:56;;;;;;;11.37;4.43;;;13.10;99.90;;;;;;4936363;29;20233;-73
2021/10/17 19:15:23;;;;;;;8.63;4.80;;;13.00;99.90;;;;;;4936710;29;20243;-73
2021/10/17 19:17:50;;;;;;;11.67;5.40;;;13.00;99.90;;;;;;4936389;29;20213;-72
2021/10/17 19:20:18;;;;;;;8.60;4.50;;;13.00;99.90;;;;;;4937063;29;20212;-73
2021/10/17 19:22:45;;;;;;;8.83;4.50;;;13.00;99.90;;;;;;4936252;29;20260;-74
2021/10/17 19:25:12;;;;;;;7.87;3.93;;;12.70;99.90;;;;;;4936519;29;20661;-72
2021/10/17 19:27:40;;;;;;;7.17;3.63;;;12.70;99.90;;;;;;4936389;29;20576;-72
2021/10/17 19:30:10;;;;;;;7.43;4.13;;;12.70;99.90;;;;;;4936171;29;20557;-73
2021/10/17 19:32:37;;;;;;;7.03;3.60;;;12.90;99.90;;;;;;4935457;29;20731;-72
2021/10/17 19:35:05;;;;;;;6.90;2.97;;;13.00;99.90;;;;;;4936065;29;20209;-73
2021/10/17 19:37:32;;;;;;;8.50;3.83;;;13.00;99.90;;;;;;4936337;29;20213;-72
2021/10/17 19:39:59;;;;;;;7.17;3.37;;;13.10;99.90;;;;;;4936028;29;20694;-75
2021/10/17 19:42:26;;;;;;;11.40;4.50;;;13.30;99.90;;;;;;4935882;29;20232;-74
2021/10/17 19:44:54;;;;;;;9.07;4.17;;;13.20;99.90;;;;;;4936134;29;20212;-72
2021/10/17 19:47:21;;;;;;;12.27;5.80;;;13.20;99.90;;;;;;4936264;29;20208;-74
2021/10/17 19:49:48;;;;;;;8.03;4.17;;;13.10;99.90;;;;;;4936159;29;20220;-73
2021/10/17 19:52:15;;;;;;;9.40;4.90;;;12.90;99.90;;;;;;4936098;29;20237;-74
2021/10/17 19:54:41;;;;;;;7.77;4.43;;;12.70;99.90;;;;;;4935866;29;20213;-74
2021/10/17 19:57:08;;;;;;;10.47;4.60;;;12.70;99.90;;;;;;4935840;29;20213;-74
2021/10/17 19:59:35;;;;;;;7.60;3.60;;;12.70;99.90;;;;;;4935910;29;20220;-75
2021/10/17 20:02:03;;;;;;;7.80;3.73;;;12.80;99.90;;;;;;4936429;29;20213;-74
2021/10/17 20:04:30;;;;;;;7.37;4.03;;;12.90;99.90;;;;;;4935741;29;20228;-75
2021/10/17 20:06:57;;;;;;;5.90;3.43;;;12.90;99.90;;;;;;4935826;29;20683;-75
2021/10/17 20:09:24;;;;;;;8.80;4.03;;;12.80;99.90;;;;;;4935869;29;20208;-72
2021/10/17 20:11:50;;;;;;;7.00;4.20;;;12.80;99.90;;;;;;4935414;29;20243;-75
2021/10/17 20:14:17;;;;;;;8.47;3.87;;;12.80;99.90;;;;;;4935828;29;20228;-76
2021/10/17 20:16:44;;;;;;;7.43;3.77;;;12.60;99.90;;;;;;4936994;29;20211;-75
2021/10/17 20:19:12;;;;;;;7.97;3.87;;;12.40;99.90;;;;;;4935822;29;20215;-74
2021/10/17 20:21:39;;;;;;;7.60;3.43;;;12.30;99.90;;;;;;4936020;29;20209;-74
2021/10/17 20:24:06;;;;;;;6.57;3.50;;;12.20;99.90;;;;;;4935361;29;20225;-75
2021/10/17 20:26:33;;;;;;;6.63;3.43;;;12.10;99.90;;;;;;4935433;29;20209;-75
2021/10/17 20:29:05;;;;;;;5.87;3.50;;;11.90;99.90;;;;;;4935369;29;20208;-73
2021/10/17 20:31:32;;;;;;;6.23;3.20;;;12.00;99.90;;;;;;4935743;29;20291;-74
2021/10/17 20:33:59;;;;;;;9.90;4.47;;;11.90;99.90;;;;;;4935594;29;20592;-75
2021/10/17 20:36:39;;;;;;;7.57;3.50;;;11.80;99.90;;;;;;4935296;29;20236;-73
2021/10/17 20:39:20;;;;;;;8.80;4.13;;;11.80;99.90;;;;;;4935317;29;20676;-73
2021/10/17 20:41:48;;;;;;;9.13;4.00;;;11.60;99.90;;;;;;4935475;29;20295;-75
2021/10/17 20:44:15;;;;;;;8.83;4.00;;;11.60;99.90;;;;;;4935584;29;20233;-74
2021/10/17 20:46:43;;;;;;;6.77;4.10;;;11.40;99.90;;;;;;4939203;29;20219;-74
2021/10/17 20:49:10;;;;;;;6.40;3.97;;;11.40;99.90;;;;;;4939287;29;20215;-73
2021/10/17 20:51:38;;;;;;;5.40;3.60;;;11.30;99.90;;;;;;4939067;29;20726;-74
2021/10/17 20:54:05;;;;;;;8.00;3.70;;;11.10;99.90;;;;;;4939154;29;20599;-74
2021/10/17 20:56:33;;;;;;;10.33;5.07;;;11.00;99.90;;;;;;4939310;29;20224;-74
2021/10/17 20:59:00;;;;;;;8.23;3.73;;;11.00;99.90;;;;;;4939088;29;20213;-74
2021/10/17 21:01:27;;;;;;;8.50;4.10;;;11.10;99.90;;;;;;4939184;29;20212;-74
2021/10/17 21:03:55;;;;;;;8.77;4.60;;;11.10;99.90;;;;;;4938912;29;20239;-74
2021/10/17 21:06:24;;;;;;;7.47;4.27;;;11.00;99.90;;;;;;4939098;29;20563;-73
2021/10/17 21:08:53;;;;;;;7.33;4.27;;;10.80;99.90;;;;;;4938744;29;20251;-74
2021/10/17 21:11:20;;;;;;;8.87;4.07;;;10.70;99.90;;;;;;4939149;29;20248;-75
2021/10/17 21:13:47;;;;;;;7.73;4.00;;;10.80;99.90;;;;;;4938718;29;20232;-74
2021/10/17 21:16:14;;;;;;;12.47;4.13;;;10.60;99.90;;;;;;4938966;29;20240;-74
2021/10/17 21:18:41;;;;;;;11.40;4.07;;;10.60;99.90;;;;;;4938348;29;20217;-72
2021/10/17 21:21:07;;;;;;;8.43;4.10;;;10.50;99.90;;;;;;4938484;29;20217;-72
2021/10/17 21:23:34;;;;;;;9.20;4.30;;;10.40;99.90;;;;;;4938273;29;20228;-72
2021/10/17 21:26:02;;;;;;;9.53;4.10;;;10.50;99.90;;;;;;4938113;29;20749;-72
2021/10/17 21:28:30;;;;;;;8.00;4.30;;;10.40;99.90;;;;;;4938183;29;20690;-72
2021/10/17 21:30:56;;;;;;;7.43;4.47;;;10.40;99.90;;;;;;4938324;29;20710;-71
2021/10/17 21:33:23;;;;;;;7.97;4.10;;;10.30;99.90;;;;;;4938271;29;20699;-72
2021/10/17 21:35:50;;;;;;;8.57;4.53;;;10.30;99.90;;;;;;4938563;29;20212;-75
2021/10/17 21:38:17;;;;;;;10.43;4.13;;;10.30;99.90;;;;;;4935367;29;20209;-73
2021/10/17 21:40:46;;;;;;;8.30;4.27;;;10.20;99.90;;;;;;4938077;29;20219;-74
2021/10/17 21:43:14;;;;;;;8.37;4.43;;;10.10;99.90;;;;;;4937856;29;20236;-73
2021/10/17 21:45:42;;;;;;;9.03;4.27;;;10.10;99.90;;;;;;4937354;29;20209;-73
2021/10/17 21:48:08;;;;;;;7.50;4.23;;;10.10;99.90;;;;;;4937656;29;20235;-73
2021/10/17 21:50:35;;;;;;;7.43;4.63;;;10.20;99.90;;;;;;4938208;29;20209;-74
2021/10/17 21:53:02;;;;;;;7.77;4.00;;;10.30;99.90;;;;;;4938084;29;20252;-74
2021/10/17 21:55:30;;;;;;;9.23;4.47;;;10.30;99.90;;;;;;4937593;29;20227;-74
2021/10/17 21:57:56;;;;;;;11.23;5.07;;;10.30;99.90;;;;;;4936613;29;20296;-73
